Time;durP1;ratioP1;P1;durP2;ratioP2;P2;SDS_P1;SDS_P2;PMS_P1;PMS_P2;Temp;Humidity;BMP_temperature;BMP_pressure;BME280_temperature;BME280_humidity;BME280_pressure;Samples;Min_cycle;Max_cycle;Signal;HPM_P1;HPM_P2
2021/12/30 00:00:29;;;;;;;1.98;1.80;;;20.10;70.70;;;;;;4995138;28;20526;-26
2021/12/30 00:02:54;;;;;;;1.95;1.80;;;20.00;70.90;;;;;;4995204;28;20043;-26
2021/12/30 00:05:20;;;;;;;2.40;2.20;;;20.00;70.90;;;;;;5012729;28;20042;-26
2021/12/30 00:07:46;;;;;;;1.60;1.50;;;20.00;70.80;;;;;;5015723;28;20562;-26
2021/12/30 00:10:12;;;;;;;1.88;1.60;;;20.00;70.90;;;;;;5014504;28;20120;-26
2021/12/30 00:12:38;;;;;;;2.00;1.90;;;20.00;70.80;;;;;;5013119;28;20472;-26
2021/12/30 00:15:05;;;;;;;2.20;2.00;;;19.90;70.80;;;;;;5014260;28;20089;-26
2021/12/30 00:17:31;;;;;;;2.88;2.00;;;19.90;70.70;;;;;;5014117;28;20092;-26
2021/12/30 00:19:56;;;;;;;1.90;1.80;;;19.90;70.60;;;;;;5015430;28;20121;-26
2021/12/30 00:22:23;;;;;;;1.65;1.48;;;19.90;70.70;;;;;;5014303;28;20050;-26
2021/12/30 00:24:48;;;;;;;1.63;1.52;;;19.90;70.50;;;;;;5011644;28;20049;-26
2021/12/30 00:27:14;;;;;;;1.80;1.63;;;19.90;70.60;;;;;;5005752;28;20133;-26
2021/12/30 00:29:39;;;;;;;1.80;1.70;;;19.90;70.50;;;;;;4996107;28;20046;-26
2021/12/30 00:32:05;;;;;;;1.70;1.58;;;19.80;70.70;;;;;;4997531;28;20066;-26
2021/12/30 00:34:31;;;;;;;1.52;1.42;;;19.90;70.60;;;;;;5000290;28;20034;-26
2021/12/30 00:36:56;;;;;;;1.67;1.58;;;19.80;70.70;;;;;;4995898;28;20129;-26
2021/12/30 00:39:22;;;;;;;2.05;1.60;;;19.80;70.50;;;;;;4975969;28;20126;-26
2021/12/30 00:41:48;;;;;;;1.70;1.40;;;19.80;70.50;;;;;;4995103;28;20069;-26
2021/12/30 00:44:13;;;;;;;1.58;1.48;;;19.80;70.50;;;;;;4995765;28;20042;-26
2021/12/30 00:46:39;;;;;;;1.30;1.20;;;19.80;70.70;;;;;;4995003;28;20073;-26
2021/12/30 00:49:04;;;;;;;1.40;1.30;;;19.80;70.70;;;;;;4995599;28;20050;-26
2021/12/30 00:51:30;;;;;;;1.83;1.73;;;19.80;70.60;;;;;;4995253;28;20524;-26
2021/12/30 00:53:56;;;;;;;1.50;1.40;;;19.70;70.70;;;;;;4995697;28;20046;-26
2021/12/30 00:56:22;;;;;;;1.75;1.65;;;19.70;70.60;;;;;;4995351;28;20459;-26
2021/12/30 00:58:47;;;;;;;1.42;1.33;;;19.80;70.50;;;;;;4996000;28;20074;-26
2021/12/30 01:01:13;;;;;;;1.50;1.40;;;19.70;70.50;;;;;;4995276;28;20101;-26
2021/12/30 01:03:38;;;;;;;1.70;1.60;;;19.70;70.40;;;;;;4997836;28;20549;-26
2021/12/30 01:06:04;;;;;;;1.77;1.65;;;19.70;70.60;;;;;;5015037;28;20487;-26
2021/12/30 01:08:30;;;;;;;1.33;1.23;;;19.70;70.60;;;;;;4999652;28;20081;-26
2021/12/30 01:10:56;;;;;;;1.35;1.23;;;19.70;70.70;;;;;;4995721;28;20089;-26
2021/12/30 01:13:30;;;;;;;1.25;1.17;;;19.70;70.80;;;;;;4994964;28;20038;-26
2021/12/30 01:16:06;;;;;;;;;;;19.60;70.80;;;;;;4996064;28;20042;-26
2021/12/30 01:18:54;;;;;;;1.50;1.40;;;19.60;70.70;;;;;;4994284;28;19921;-26
2021/12/30 01:21:19;;;;;;;1.50;1.40;;;19.60;70.70;;;;;;5001552;28;20049;-26
2021/12/30 01:23:45;;;;;;;1.30;1.20;;;19.60;70.70;;;;;;5018497;28;20054;-26
2021/12/30 01:26:11;;;;;;;1.40;1.23;;;19.60;70.50;;;;;;5018954;28;20050;-26
2021/12/30 01:28:37;;;;;;;1.75;1.23;;;19.60;70.70;;;;;;5015469;28;20073;-26
2021/12/30 01:31:03;;;;;;;1.20;1.10;;;19.60;70.70;;;;;;5018619;28;20042;-26
2021/12/30 01:33:29;;;;;;;1.55;1.45;;;19.50;70.80;;;;;;5000409;28;20054;-26
2021/12/30 01:35:54;;;;;;;1.60;1.30;;;19.50;70.90;;;;;;4999387;28;20522;-26
2021/12/30 01:38:20;;;;;;;1.90;1.73;;;19.50;70.80;;;;;;5034654;28;20052;-26
2021/12/30 01:40:47;;;;;;;2.92;1.50;;;19.60;70.80;;;;;;5018327;28;20046;-27
2021/12/30 01:43:13;;;;;;;1.38;1.27;;;19.60;70.80;;;;;;5018335;28;20054;-26
2021/12/30 01:45:39;;;;;;;1.80;1.65;;;19.50;70.80;;;;;;5017784;28;20081;-26
2021/12/30 01:48:05;;;;;;;1.67;1.50;;;19.50;70.80;;;;;;5018664;28;20052;-26
2021/12/30 01:50:30;;;;;;;1.33;1.23;;;19.50;70.70;;;;;;5010783;28;20046;-26
2021/12/30 01:52:58;;;;;;;1.60;1.23;;;19.50;70.80;;;;;;4997286;28;20134;-26
2021/12/30 01:55:24;;;;;;;1.38;1.27;;;19.50;70.90;;;;;;4994959;28;20053;-26
2021/12/30 01:57:50;;;;;;;1.40;1.20;;;19.40;70.90;;;;;;4998583;28;20042;-26
2021/12/30 02:00:18;;;;;;;1.23;1.13;;;19.50;70.90;;;;;;4998455;28;20045;-26
2021/12/30 02:02:44;;;;;;;1.30;1.20;;;19.50;71.10;;;;;;4998261;28;20096;-26
2021/12/30 02:05:09;;;;;;;1.77;1.25;;;19.40;70.90;;;;;;4998066;28;20038;-26
2021/12/30 02:07:35;;;;;;;1.30;1.20;;;19.50;70.90;;;;;;4997514;28;20066;-26
2021/12/30 02:10:01;;;;;;;1.50;1.23;;;19.40;70.90;;;;;;4995608;28;20043;-26
2021/12/30 02:12:34;;;;;;;1.48;1.38;;;19.40;70.90;;;;;;4993407;28;20046;-26
2021/12/30 02:15:00;;;;;;;1.33;1.20;;;19.40;70.90;;;;;;4999265;28;20108;-26
2021/12/30 02:17:26;;;;;;;1.92;1.25;;;19.40;70.90;;;;;;4994971;28;20102;-26
2021/12/30 02:19:59;;;;;;;1.30;1.20;;;19.40;71.00;;;;;;4995273;28;20043;-27
2021/12/30 02:22:25;;;;;;;1.17;1.10;;;19.40;70.90;;;;;;4995700;28;20038;-26
2021/12/30 02:24:51;;;;;;;1.40;1.23;;;19.40;71.10;;;;;;4995664;28;20046;-26
2021/12/30 02:27:17;;;;;;;1.23;1.00;;;19.30;71.20;;;;;;4995283;28;20403;-26
2021/12/30 02:29:42;;;;;;;0.80;0.80;;;19.30;71.10;;;;;;4995562;28;20039;-26
2021/12/30 02:32:08;;;;;;;1.27;0.90;;;19.30;71.20;;;;;;4996374;28;20034;-26
2021/12/30 02:34:34;;;;;;;1.20;1.10;;;19.30;71.10;;;;;;4994655;28;20049;-26
2021/12/30 02:36:59;;;;;;;1.60;1.30;;;19.30;71.10;;;;;;4996168;28;20046;-27
2021/12/30 02:39:25;;;;;;;1.55;1.38;;;19.30;71.20;;;;;;4993984;28;20122;-26
2021/12/30 02:41:51;;;;;;;2.03;1.60;;;19.30;71.10;;;;;;4994352;28;20058;-26
2021/12/30 02:44:17;;;;;;;1.60;1.10;;;19.30;71.00;;;;;;4996156;28;20049;-26
2021/12/30 02:46:42;;;;;;;1.48;1.33;;;19.30;71.00;;;;;;4996081;28;20084;-26
2021/12/30 02:49:08;;;;;;;1.30;1.20;;;19.30;71.10;;;;;;4997087;28;20774;-26
2021/12/30 02:51:34;;;;;;;2.20;1.40;;;19.30;71.00;;;;;;4996254;28;20132;-26
2021/12/30 02:53:59;;;;;;;1.20;1.10;;;19.30;71.10;;;;;;4996383;28;20049;-26
2021/12/30 02:56:27;;;;;;;1.05;0.95;;;19.30;71.10;;;;;;4995724;28;20043;-26
2021/12/30 02:58:53;;;;;;;1.20;1.10;;;19.30;71.10;;;;;;4996969;28;20046;-26
2021/12/30 03:01:20;;;;;;;1.30;1.20;;;19.30;71.10;;;;;;4996579;28;20097;-26
2021/12/30 03:03:46;;;;;;;1.20;1.10;;;19.30;71.30;;;;;;5016152;28;20492;-26
2021/12/30 03:06:13;;;;;;;2.47;1.05;;;19.30;71.20;;;;;;5013850;28;20045;-26
2021/12/30 03:08:39;;;;;;;1.02;1.00;;;19.30;71.20;;;;;;5013993;28;20054;-26
2021/12/30 03:11:04;;;;;;;0.85;0.85;;;19.20;71.10;;;;;;4997487;28;20046;-26
2021/12/30 03:13:31;;;;;;;1.10;1.00;;;19.20;71.10;;;;;;4996860;28;20074;-26
2021/12/30 03:16:02;;;;;;;1.20;0.90;;;19.20;71.10;;;;;;4996521;28;20053;-26
2021/12/30 03:18:29;;;;;;;1.42;1.33;;;19.20;71.10;;;;;;5011436;28;20056;-27
2021/12/30 03:20:54;;;;;;;1.20;1.10;;;19.20;71.10;;;;;;4996660;28;20054;-26
2021/12/30 03:23:20;;;;;;;1.52;1.15;;;19.20;71.20;;;;;;4997312;28;20069;-26
2021/12/30 03:25:45;;;;;;;1.33;1.23;;;19.20;71.10;;;;;;4996656;28;20046;-26
2021/12/30 03:28:11;;;;;;;1.10;1.00;;;19.20;71.10;;;;;;4997002;28;20499;-26
2021/12/30 03:30:37;;;;;;;1.10;1.00;;;19.20;71.10;;;;;;4995905;28;20045;-26
2021/12/30 03:33:02;;;;;;;1.08;0.85;;;19.20;71.20;;;;;;4997173;28;20043;-26
2021/12/30 03:35:28;;;;;;;1.17;1.00;;;19.20;71.20;;;;;;4996178;28;20046;-27
2021/12/30 03:37:53;;;;;;;1.63;0.77;;;19.20;71.10;;;;;;4996130;28;20046;-26
2021/12/30 03:40:19;;;;;;;1.08;0.88;;;19.20;71.10;;;;;;4996621;28;20447;-26
2021/12/30 03:42:45;;;;;;;1.27;0.85;;;19.20;71.10;;;;;;4995842;28;20054;-26
2021/12/30 03:45:11;;;;;;;1.17;1.08;;;19.20;71.20;;;;;;4996534;28;20046;-26
2021/12/30 03:47:39;;;;;;;1.20;1.10;;;19.20;71.20;;;;;;4995816;28;20046;-26
2021/12/30 03:50:06;;;;;;;0.95;0.80;;;19.10;71.30;;;;;;4996376;28;20038;-26
2021/12/30 03:52:32;;;;;;;1.88;1.05;;;19.10;71.30;;;;;;4995853;28;20181;-26
2021/12/30 03:54:58;;;;;;;0.80;0.80;;;19.10;71.20;;;;;;4996224;28;20054;-26
2021/12/30 03:57:23;;;;;;;0.70;0.70;;;19.10;71.20;;;;;;4996457;28;20046;-26
2021/12/30 03:59:49;;;;;;;1.52;0.98;;;19.10;71.20;;;;;;4996176;28;20491;-26
2021/12/30 04:02:15;;;;;;;0.90;0.90;;;19.10;71.20;;;;;;4996071;28;20499;-26
2021/12/30 04:04:40;;;;;;;0.90;0.75;;;19.10;71.20;;;;;;5005654;28;20095;-26
2021/12/30 04:07:06;;;;;;;0.82;0.82;;;19.10;71.30;;;;;;5015765;28;20049;-27
2021/12/30 04:09:31;;;;;;;1.05;0.90;;;19.10;71.10;;;;;;5006133;28;20046;-27
2021/12/30 04:11:57;;;;;;;0.68;0.68;;;19.10;71.10;;;;;;4996184;28;20050;-26
2021/12/30 04:14:26;;;;;;;1.30;1.00;;;19.10;71.10;;;;;;4996402;28;20078;-26
2021/12/30 04:16:52;;;;;;;1.00;0.93;;;19.10;71.10;;;;;;4995854;28;20046;-26
2021/12/30 04:19:18;;;;;;;0.70;0.65;;;19.10;71.10;;;;;;4996340;28;20038;-26
2021/12/30 04:21:44;;;;;;;1.00;0.70;;;19.10;71.10;;;;;;4995062;28;20049;-26
2021/12/30 04:24:09;;;;;;;1.33;1.00;;;19.10;71.20;;;;;;4995476;28;20058;-26
2021/12/30 04:26:35;;;;;;;1.27;0.80;;;19.10;71.10;;;;;;4995199;28;20125;-27
2021/12/30 04:29:00;;;;;;;0.68;0.63;;;19.10;71.10;;;;;;4996242;28;20050;-26
2021/12/30 04:31:26;;;;;;;0.77;0.77;;;19.10;71.10;;;;;;4996510;28;20104;-26
2021/12/30 04:33:52;;;;;;;1.05;0.90;;;19.10;71.10;;;;;;4995589;28;20046;-26
2021/12/30 04:36:17;;;;;;;0.88;0.88;;;19.10;71.00;;;;;;4995210;28;20558;-26
2021/12/30 04:38:43;;;;;;;1.10;1.00;;;19.10;71.10;;;;;;4995137;28;20145;-26
2021/12/30 04:41:08;;;;;;;1.73;1.00;;;19.10;71.10;;;;;;4995559;28;20518;-26
2021/12/30 04:43:34;;;;;;;0.80;0.80;;;19.10;71.10;;;;;;4995482;28;20129;-26
2021/12/30 04:46:01;;;;;;;0.98;0.80;;;19.10;71.10;;;;;;4996042;28;20046;-26
2021/12/30 04:48:27;;;;;;;1.10;0.73;;;19.20;70.90;;;;;;4996053;28;20047;-26
2021/12/30 04:50:53;;;;;;;1.30;0.80;;;19.10;70.90;;;;;;4994932;28;20081;-26
2021/12/30 04:53:19;;;;;;;0.98;0.85;;;19.10;71.00;;;;;;4994202;28;20054;-26
2021/12/30 04:55:44;;;;;;;1.08;0.77;;;19.10;71.00;;;;;;4994804;28;20062;-26
2021/12/30 04:58:11;;;;;;;1.25;0.73;;;19.10;71.00;;;;;;4999575;28;20093;-26
2021/12/30 05:00:36;;;;;;;1.55;0.95;;;19.10;70.90;;;;;;4999213;28;20049;-26
2021/12/30 05:03:13;;;;;;;1.02;0.90;;;19.10;71.00;;;;;;4999527;28;20047;-26
2021/12/30 05:05:44;;;;;;;0.95;0.82;;;19.10;71.00;;;;;;5015831;28;20053;-26
2021/12/30 05:08:10;;;;;;;1.02;0.77;;;19.10;71.00;;;;;;5018914;28;20449;-26
2021/12/30 05:10:36;;;;;;;1.48;0.70;;;19.10;70.90;;;;;;5018606;28;20050;-27
2021/12/30 05:13:02;;;;;;;0.80;0.80;;;19.10;71.00;;;;;;5019191;28;20068;-26
2021/12/30 05:15:28;;;;;;;0.80;0.63;;;19.10;71.10;;;;;;5018882;28;20041;-26
2021/12/30 05:17:54;;;;;;;1.63;1.10;;;19.10;71.10;;;;;;5016830;28;20046;-26
2021/12/30 05:20:19;;;;;;;1.90;1.10;;;19.10;71.10;;;;;;5019137;28;20049;-26
2021/12/30 05:22:45;;;;;;;1.13;0.93;;;19.10;71.00;;;;;;5018306;28;20482;-26
2021/12/30 05:25:11;;;;;;;0.93;0.80;;;19.10;71.10;;;;;;5015007;28;20038;-26
2021/12/30 05:27:37;;;;;;;1.33;0.95;;;19.10;71.10;;;;;;4998867;28;20380;-26
2021/12/30 05:30:04;;;;;;;1.60;0.80;;;19.10;71.20;;;;;;5013509;28;20048;-26
2021/12/30 05:32:29;;;;;;;1.55;1.25;;;19.10;71.20;;;;;;5006952;28;20158;-26
2021/12/30 05:34:55;;;;;;;1.42;0.70;;;19.10;71.20;;;;;;4998444;28;20089;-26
2021/12/30 05:37:21;;;;;;;1.25;0.70;;;19.10;71.20;;;;;;4998886;28;20042;-26
2021/12/30 05:39:46;;;;;;;1.05;0.90;;;19.10;71.40;;;;;;4998272;28;20044;-26
2021/12/30 05:42:12;;;;;;;1.05;0.70;;;19.10;71.40;;;;;;4999000;28;20065;-26
2021/12/30 05:44:37;;;;;;;1.38;0.80;;;19.10;71.30;;;;;;4998485;28;20050;-26
2021/12/30 05:47:03;;;;;;;0.95;0.50;;;19.10;71.40;;;;;;4998523;28;20050;-26
2021/12/30 05:49:29;;;;;;;0.70;0.60;;;19.10;71.40;;;;;;4998173;28;20050;-26
2021/12/30 05:51:54;;;;;;;1.38;0.80;;;19.10;71.40;;;;;;4997926;28;20479;-26
2021/12/30 05:54:20;;;;;;;0.80;0.50;;;19.00;71.40;;;;;;4998645;28;20050;-26
2021/12/30 05:56:45;;;;;;;1.02;0.60;;;19.10;71.50;;;;;;4997985;28;20049;-26
2021/12/30 05:59:11;;;;;;;1.48;0.90;;;19.10;71.50;;;;;;4998790;28;20408;-26
2021/12/30 06:01:37;;;;;;;1.15;0.80;;;19.10;71.30;;;;;;4998292;28;20081;-26
2021/12/30 06:04:02;;;;;;;0.85;0.75;;;19.00;71.40;;;;;;4998181;28;20046;-26
2021/12/30 06:06:28;;;;;;;2.63;0.82;;;19.00;71.40;;;;;;4998210;28;20042;-26
2021/12/30 06:08:55;;;;;;;0.93;0.82;;;19.10;71.40;;;;;;4997144;28;20340;-26
2021/12/30 06:11:21;;;;;;;1.20;0.82;;;19.00;71.60;;;;;;4998248;28;20042;-26
2021/12/30 06:13:46;;;;;;;1.45;0.77;;;19.00;72.30;;;;;;4997902;28;20050;-26
2021/12/30 06:16:12;;;;;;;1.30;0.70;;;19.00;71.50;;;;;;4998595;28;20100;-26
2021/12/30 06:18:37;;;;;;;1.48;0.80;;;19.00;71.60;;;;;;4997953;28;20120;-27
2021/12/30 06:21:03;;;;;;;1.23;0.98;;;19.00;71.50;;;;;;4997580;28;20042;-26
2021/12/30 06:23:28;;;;;;;1.52;0.75;;;19.00;71.60;;;;;;4996753;28;20046;-26
2021/12/30 06:25:54;;;;;;;1.08;0.82;;;19.00;71.50;;;;;;4999580;28;20519;-26
2021/12/30 06:28:20;;;;;;;0.70;0.60;;;19.00;71.50;;;;;;5017996;28;20045;-26
2021/12/30 06:30:45;;;;;;;0.85;0.80;;;19.00;71.50;;;;;;5020606;28;20115;-26
2021/12/30 06:33:11;;;;;;;1.02;0.60;;;19.00;71.50;;;;;;5017828;28;20038;-26
2021/12/30 06:35:36;;;;;;;0.93;0.50;;;19.00;71.60;;;;;;5017501;28;20045;-26
2021/12/30 06:38:03;;;;;;;0.90;0.63;;;19.00;71.60;;;;;;5034915;28;20096;-26
2021/12/30 06:40:29;;;;;;;0.98;0.80;;;19.00;71.70;;;;;;5016313;28;20054;-26
2021/12/30 06:42:54;;;;;;;0.70;0.60;;;19.00;71.70;;;;;;4996934;28;20030;-26
2021/12/30 06:45:20;;;;;;;0.93;0.60;;;19.00;71.70;;;;;;4997267;28;20046;-26
2021/12/30 06:47:46;;;;;;;0.70;0.60;;;19.00;72.40;;;;;;4997255;28;20034;-26
2021/12/30 06:50:15;;;;;;;0.57;0.50;;;18.90;71.60;;;;;;4996980;28;20453;-26
2021/12/30 06:52:42;;;;;;;1.10;0.80;;;18.90;71.70;;;;;;4996110;28;20050;-26
2021/12/30 06:55:08;;;;;;;1.10;0.70;;;18.90;71.90;;;;;;4994894;28;20053;-26
2021/12/30 06:57:34;;;;;;;0.95;0.80;;;19.00;71.50;;;;;;4996725;28;20038;-26
2021/12/30 07:00:00;;;;;;;1.40;0.82;;;19.00;71.40;;;;;;4995351;28;20043;-26
2021/12/30 07:02:25;;;;;;;2.20;1.50;;;19.10;71.30;;;;;;4997023;28;20049;-26
2021/12/30 07:04:51;;;;;;;10.05;2.00;;;19.10;71.60;;;;;;4996463;28;20050;-26
2021/12/30 07:07:17;;;;;;;7.65;2.70;;;19.20;72.10;;;;;;4997139;28;20054;-26
2021/12/30 07:09:42;;;;;;;7.93;2.40;;;19.20;72.30;;;;;;4985566;28;20057;-26
2021/12/30 07:12:08;;;;;;;6.45;2.45;;;19.20;72.40;;;;;;4996708;28;20049;-26
2021/12/30 07:14:34;;;;;;;4.97;2.63;;;19.10;72.80;;;;;;4996810;28;20104;-26
2021/12/30 07:16:59;;;;;;;5.57;2.38;;;19.20;72.30;;;;;;5001874;28;20061;-26
2021/12/30 07:19:25;;;;;;;4.53;2.15;;;19.10;72.50;;;;;;4996490;28;20188;-26
2021/12/30 07:21:50;;;;;;;4.85;2.13;;;19.10;72.20;;;;;;4991535;28;20391;-26
2021/12/30 07:24:17;;;;;;;4.43;1.65;;;19.20;72.40;;;;;;5009853;28;20495;-26
2021/12/30 07:26:42;;;;;;;4.78;1.92;;;19.10;72.20;;;;;;4995722;28;20046;-26
2021/12/30 07:29:08;;;;;;;4.90;1.80;;;19.10;72.30;;;;;;4998673;28;20100;-26
2021/12/30 07:31:34;;;;;;;4.18;1.65;;;19.20;72.30;;;;;;5007805;28;20043;-26
2021/12/30 07:33:59;;;;;;;3.55;1.67;;;19.20;72.00;;;;;;5004427;28;20050;-26
2021/12/30 07:36:25;;;;;;;4.60;1.98;;;19.20;71.90;;;;;;4996865;28;20043;-26
2021/12/30 07:38:51;;;;;;;3.63;1.83;;;19.30;71.70;;;;;;4996101;28;20062;-26
2021/12/30 07:41:16;;;;;;;2.72;1.58;;;19.20;71.70;;;;;;4996841;28;20105;-26
2021/12/30 07:43:42;;;;;;;2.92;1.55;;;19.20;71.90;;;;;;4996349;28;20079;-26
2021/12/30 07:46:09;;;;;;;4.80;1.90;;;19.20;71.80;;;;;;4996534;28;20038;-26
2021/12/30 07:48:38;;;;;;;2.22;1.25;;;19.20;71.80;;;;;;4996146;28;20140;-26
2021/12/30 07:51:03;;;;;;;1.30;1.10;;;19.20;71.70;;;;;;4995828;28;20049;-26
2021/12/30 07:53:29;;;;;;;2.17;1.30;;;19.20;71.60;;;;;;4996107;28;20050;-26
2021/12/30 07:55:55;;;;;;;2.03;1.65;;;19.20;71.50;;;;;;4995581;28;20106;-26
2021/12/30 07:58:20;;;;;;;2.75;1.50;;;19.30;71.40;;;;;;4993821;28;20137;-26
2021/12/30 08:00:46;;;;;;;2.67;1.55;;;19.20;71.40;;;;;;4993473;28;20042;-26
2021/12/30 08:03:11;;;;;;;4.45;1.30;;;19.20;71.50;;;;;;4995322;28;20054;-26
2021/12/30 08:05:37;;;;;;;2.20;1.33;;;19.20;71.70;;;;;;4994739;28;20058;-26
2021/12/30 08:08:03;;;;;;;1.85;1.10;;;19.20;71.80;;;;;;4992768;28;20469;-25
2021/12/30 08:10:29;;;;;;;1.58;0.85;;;19.10;72.10;;;;;;4995032;28;20042;-26
2021/12/30 08:12:55;;;;;;;1.10;1.00;;;19.20;72.20;;;;;;4994535;28;20061;-26
2021/12/30 08:15:21;;;;;;;5.22;1.23;;;19.10;72.10;;;;;;4995430;28;20043;-26
2021/12/30 08:17:47;;;;;;;2.13;1.30;;;19.20;72.30;;;;;;4993851;28;20101;-26
2021/12/30 08:20:13;;;;;;;2.13;1.08;;;19.20;71.90;;;;;;4996112;28;20049;-26
2021/12/30 08:22:39;;;;;;;3.95;1.08;;;19.20;71.90;;;;;;4995863;28;20117;-26
2021/12/30 08:25:06;;;;;;;2.53;1.00;;;19.20;71.80;;;;;;4994714;28;20136;-26
2021/12/30 08:27:31;;;;;;;1.55;1.10;;;19.20;71.80;;;;;;4994013;28;20050;-26
2021/12/30 08:29:57;;;;;;;1.30;0.80;;;19.20;71.80;;;;;;4994683;28;20081;-26
2021/12/30 08:32:23;;;;;;;1.58;0.90;;;19.20;72.20;;;;;;4993790;28;20043;-26
2021/12/30 08:34:48;;;;;;;0.90;0.70;;;19.10;72.00;;;;;;4992889;28;20042;-27
2021/12/30 08:37:15;;;;;;;1.40;0.85;;;19.10;71.90;;;;;;4995319;28;20861;-26
2021/12/30 08:39:41;;;;;;;1.30;0.80;;;19.20;71.80;;;;;;5001789;28;20112;-26
2021/12/30 08:42:18;;;;;;;1.30;0.82;;;19.20;71.90;;;;;;5006997;28;20058;-26
2021/12/30 08:44:44;;;;;;;1.58;0.98;;;19.10;71.80;;;;;;4991180;28;20046;-26
2021/12/30 08:47:10;;;;;;;1.40;1.00;;;19.20;71.80;;;;;;4992957;28;20141;-26
2021/12/30 08:49:36;;;;;;;1.10;0.70;;;19.20;71.80;;;;;;4991551;28;20042;-26
2021/12/30 08:52:02;;;;;;;1.50;0.90;;;19.20;71.70;;;;;;4993881;28;20104;-26
2021/12/30 08:54:29;;;;;;;2.42;1.35;;;19.20;71.60;;;;;;4992294;28;20154;-26
2021/12/30 08:56:55;;;;;;;1.10;0.82;;;19.20;71.50;;;;;;4994212;28;20479;-26
2021/12/30 08:59:20;;;;;;;2.90;1.13;;;19.20;71.50;;;;;;5013405;28;20042;-26
2021/12/30 09:01:46;;;;;;;1.05;0.88;;;19.20;71.50;;;;;;5003868;28;20050;-26
2021/12/30 09:04:12;;;;;;;0.90;0.90;;;19.20;71.40;;;;;;4992743;28;20212;-26
2021/12/30 09:06:37;;;;;;;1.70;1.00;;;19.20;71.40;;;;;;4994174;28;20046;-26
2021/12/30 09:09:03;;;;;;;0.93;0.70;;;19.20;71.40;;;;;;4993241;28;20112;-26
2021/12/30 09:11:28;;;;;;;1.75;1.00;;;19.20;71.40;;;;;;4993553;28;20058;-26
2021/12/30 09:13:54;;;;;;;2.75;0.93;;;19.20;71.40;;;;;;4993442;28;20719;-26
2021/12/30 09:16:19;;;;;;;0.70;0.70;;;19.20;71.30;;;;;;5007079;28;20141;-26
2021/12/30 09:18:45;;;;;;;2.47;1.08;;;19.20;71.20;;;;;;4995151;28;20101;-26
2021/12/30 09:21:11;;;;;;;0.95;0.73;;;19.10;71.50;;;;;;4994510;28;20503;-26
2021/12/30 09:23:36;;;;;;;1.15;1.00;;;19.10;71.50;;;;;;4989400;28;20085;-26
2021/12/30 09:26:02;;;;;;;2.08;1.23;;;19.20;71.40;;;;;;4987313;28;20054;-26
2021/12/30 09:28:27;;;;;;;0.93;0.77;;;19.10;71.30;;;;;;4988955;28;20570;-26
2021/12/30 09:30:53;;;;;;;2.20;1.10;;;19.20;71.30;;;;;;4990082;28;20629;-26
2021/12/30 09:33:19;;;;;;;1.45;1.00;;;19.20;71.50;;;;;;4997801;28;20052;-26
2021/12/30 09:35:47;;;;;;;2.13;0.90;;;19.20;71.30;;;;;;4993722;28;20050;-26
2021/12/30 09:38:12;;;;;;;2.13;1.33;;;19.10;71.50;;;;;;4991359;28;20174;-26
2021/12/30 09:40:38;;;;;;;1.40;1.02;;;19.10;71.70;;;;;;4647327;28;9999812;-26
2021/12/30 09:43:04;;;;;;;2.60;1.00;;;19.00;72.10;;;;;;4987160;28;20101;-26
2021/12/30 09:45:32;;;;;;;1.25;0.90;;;19.00;72.10;;;;;;5003827;28;20056;-26
2021/12/30 09:47:58;;;;;;;3.63;1.00;;;19.00;72.30;;;;;;4997814;28;20097;-26
2021/12/30 09:50:30;;;;;;;1.08;0.95;;;19.00;72.50;;;;;;4998444;28;20407;-26
2021/12/30 09:52:56;;;;;;;1.10;0.88;;;19.00;72.40;;;;;;4986328;28;20102;-26
2021/12/30 09:55:22;;;;;;;0.65;0.65;;;19.00;72.40;;;;;;4997926;28;20132;-26
2021/12/30 09:57:48;;;;;;;1.58;0.73;;;19.00;72.30;;;;;;4997068;28;20089;-26
2021/12/30 10:00:15;;;;;;;1.30;1.02;;;19.00;72.10;;;;;;4996701;28;20042;-26
2021/12/30 10:02:41;;;;;;;1.38;1.02;;;19.10;72.20;;;;;;4998321;28;20054;-26
2021/12/30 10:05:08;;;;;;;1.27;0.90;;;19.10;72.10;;;;;;4997869;28;20046;-26
2021/12/30 10:07:34;;;;;;;2.15;1.00;;;19.10;71.90;;;;;;4998144;28;20404;-26
2021/12/30 10:10:03;;;;;;;2.22;0.80;;;19.20;71.70;;;;;;4996750;28;20053;-26
2021/12/30 10:12:35;;;;;;;2.95;1.40;;;19.20;71.80;;;;;;4994828;28;20050;-26
2021/12/30 10:15:01;;;;;;;1.02;0.73;;;19.20;71.60;;;;;;4997345;28;20050;-26
2021/12/30 10:17:27;;;;;;;1.83;1.00;;;19.20;72.50;;;;;;4997589;28;20545;-26
2021/12/30 10:19:54;;;;;;;1.15;0.90;;;19.20;71.50;;;;;;4997256;28;20112;-26
2021/12/30 10:22:21;;;;;;;1.10;1.00;;;19.20;71.60;;;;;;4997297;28;20511;-26
2021/12/30 10:24:47;;;;;;;1.60;1.05;;;19.20;71.50;;;;;;4997977;28;20409;-26
2021/12/30 10:27:26;;;;;;;1.38;0.88;;;19.30;71.50;;;;;;4993701;28;20050;-26
2021/12/30 10:29:52;;;;;;;0.82;0.73;;;19.30;71.70;;;;;;4996145;28;22020;-26
2021/12/30 10:32:21;;;;;;;1.20;0.80;;;19.20;71.50;;;;;;4997054;28;20054;-26
2021/12/30 10:35:09;;;;;;;1.38;0.75;;;19.20;71.60;;;;;;4994843;28;20042;-26
2021/12/30 10:37:36;;;;;;;0.80;0.63;;;19.30;71.50;;;;;;4988721;28;20506;-26
2021/12/30 10:40:03;;;;;;;1.05;0.80;;;19.30;71.30;;;;;;4993974;28;20050;-26
2021/12/30 10:42:31;;;;;;;1.17;0.80;;;19.30;71.40;;;;;;4985466;28;20078;-26
2021/12/30 10:45:04;;;;;;;0.88;0.68;;;19.30;71.50;;;;;;5002086;28;20043;-26
2021/12/30 10:47:34;;;;;;;0.75;0.60;;;19.30;71.70;;;;;;4987727;28;20064;-26
2021/12/30 10:50:12;;;;;;;0.75;0.60;;;19.30;71.50;;;;;;5009806;28;20042;-26
2021/12/30 10:52:52;;;;;;;2.33;0.52;;;19.30;71.30;;;;;;4986897;28;20146;-26
2021/12/30 10:55:17;;;;;;;0.80;0.70;;;19.40;71.30;;;;;;5014706;28;20049;-26
2021/12/30 10:57:43;;;;;;;3.08;0.60;;;19.40;71.30;;;;;;5003602;28;20052;-26
2021/12/30 11:00:09;;;;;;;1.02;0.55;;;19.30;71.40;;;;;;4992241;28;20046;-26
2021/12/30 11:02:35;;;;;;;0.82;0.82;;;19.30;71.30;;;;;;4996269;28;20052;-26
2021/12/30 11:05:06;;;;;;;2.10;0.77;;;19.30;71.30;;;;;;4995925;28;20039;-26
2021/12/30 11:07:43;;;;;;;1.80;0.60;;;19.30;71.60;;;;;;4994147;28;20062;-26
2021/12/30 11:10:09;;;;;;;0.70;0.70;;;19.30;71.70;;;;;;4995680;28;20049;-26
2021/12/30 11:12:38;;;;;;;0.63;0.63;;;19.30;71.50;;;;;;4996088;28;20077;-25
2021/12/30 11:15:16;;;;;;;1.75;0.50;;;19.40;71.50;;;;;;4994555;28;20054;-26
2021/12/30 11:17:42;;;;;;;1.17;0.73;;;19.40;71.40;;;;;;4993992;28;20058;-26
2021/12/30 11:20:09;;;;;;;0.70;0.70;;;19.40;71.60;;;;;;4994436;28;20046;-26
2021/12/30 11:22:35;;;;;;;0.73;0.70;;;19.40;71.30;;;;;;4990470;28;20077;-26
2021/12/30 11:25:07;;;;;;;0.50;0.50;;;19.50;71.30;;;;;;4994398;28;20046;-26
2021/12/30 11:27:33;;;;;;;0.73;0.57;;;19.40;71.10;;;;;;4993233;28;20611;-27
2021/12/30 11:30:05;;;;;;;0.73;0.57;;;19.40;71.50;;;;;;4993845;28;20042;-27
2021/12/30 11:32:34;;;;;;;1.83;0.60;;;19.40;71.20;;;;;;4994344;28;20101;-27
2021/12/30 11:35:01;;;;;;;0.70;0.63;;;19.50;71.00;;;;;;4991291;28;20061;-27
2021/12/30 11:37:27;;;;;;;0.75;0.40;;;19.50;70.90;;;;;;4992932;28;20082;-27
2021/12/30 11:39:55;;;;;;;0.60;0.55;;;19.50;70.90;;;;;;4994455;28;20042;-27
2021/12/30 11:42:28;;;;;;;2.38;0.60;;;19.50;70.90;;;;;;4988847;28;20416;-27
2021/12/30 11:45:00;;;;;;;1.05;0.70;;;19.50;70.80;;;;;;4992827;28;20096;-27
2021/12/30 11:47:32;;;;;;;0.70;0.40;;;19.50;70.60;;;;;;5006160;28;20053;-27
2021/12/30 11:50:17;;;;;;;5.15;0.60;;;19.50;70.80;;;;;;5009438;28;20042;-27
2021/12/30 11:53:08;;;;;;;0.65;0.43;;;19.50;70.80;;;;;;5013373;28;20046;-27
2021/12/30 11:56:12;;;;;;;1.20;0.60;;;19.50;70.50;;;;;;4984661;28;20542;-26
2021/12/30 11:58:45;;;;;;;1.23;0.50;;;19.50;70.80;;;;;;4989435;28;20133;-27
2021/12/30 12:01:11;;;;;;;0.98;0.65;;;19.60;70.70;;;;;;4637626;28;10000142;-26
2021/12/30 12:03:58;;;;;;;1.08;0.50;;;19.60;70.70;;;;;;4978638;28;20140;-26
2021/12/30 12:06:31;;;;;;;1.00;0.55;;;19.60;70.70;;;;;;4993609;28;20042;-27
2021/12/30 12:08:59;;;;;;;1.92;0.95;;;19.60;71.10;;;;;;4989491;28;20165;-27
2021/12/30 12:11:27;;;;;;;0.77;0.50;;;19.60;71.50;;;;;;5004865;28;20046;-27
2021/12/30 12:13:54;;;;;;;1.67;0.73;;;19.50;71.80;;;;;;5011435;28;20060;-27
2021/12/30 12:16:44;;;;;;;0.93;0.77;;;19.50;72.30;;;;;;5008550;28;20057;-26
2021/12/30 12:19:10;;;;;;;1.05;0.77;;;19.50;72.40;;;;;;5005966;28;20088;-27
2021/12/30 12:21:50;;;;;;;1.42;0.65;;;19.40;72.40;;;;;;4992520;28;20105;-27
2021/12/30 12:24:21;;;;;;;1.35;0.90;;;19.40;72.80;;;;;;4987924;28;20204;-27
2021/12/30 12:26:48;;;;;;;1.38;0.93;;;19.40;72.90;;;;;;4991241;28;20061;-26
2021/12/30 12:29:29;;;;;;;1.35;0.73;;;19.40;73.00;;;;;;4990376;28;20522;-27
2021/12/30 12:32:18;;;;;;;1.02;0.80;;;19.40;73.20;;;;;;4989692;28;20565;-27
2021/12/30 12:34:56;;;;;;;1.85;0.82;;;19.40;73.20;;;;;;5009098;28;20053;-27
2021/12/30 12:37:37;;;;;;;1.00;0.90;;;19.40;73.30;;;;;;5010675;28;20042;-26
2021/12/30 12:40:02;;;;;;;1.70;0.55;;;19.40;73.40;;;;;;5007128;28;20041;-26
2021/12/30 12:42:43;;;;;;;0.57;0.50;;;19.40;73.20;;;;;;5002591;28;20053;-26
2021/12/30 12:45:23;;;;;;;0.85;0.80;;;19.40;73.20;;;;;;4986361;28;20115;-26
2021/12/30 12:48:17;;;;;;;1.02;0.77;;;19.50;72.60;;;;;;4993682;28;20038;-26